sensor_id;sensor_type;location;lat;lon;timestamp;P1;durP1;ratioP1;P2;durP2;ratioP2
10517;SDS011;5307;42.548;22.968;2023-07-31T00:02:19;5.95;;;4.10;;
10517;SDS011;5307;42.548;22.968;2023-07-31T00:04:45;4.47;;;3.63;;
10517;SDS011;5307;42.548;22.968;2023-07-31T00:07:12;6.97;;;4.43;;
10517;SDS011;5307;42.548;22.968;2023-07-31T00:09:39;8.73;;;4.15;;
10517;SDS011;5307;42.548;22.968;2023-07-31T00:12:08;5.10;;;3.70;;
10517;SDS011;5307;42.548;22.968;2023-07-31T00:14:34;5.15;;;3.80;;
10517;SDS011;5307;42.548;22.968;2023-07-31T00:17:01;6.22;;;4.15;;
10517;SDS011;5307;42.548;22.968;2023-07-31T00:19:28;7.38;;;4.32;;
10517;SDS011;5307;42.548;22.968;2023-07-31T00:21:55;5.95;;;3.92;;
10517;SDS011;5307;42.548;22.968;2023-07-31T00:24:21;6.68;;;4.50;;
10517;SDS011;5307;42.548;22.968;2023-07-31T00:26:54;4.40;;;3.67;;
10517;SDS011;5307;42.548;22.968;2023-07-31T00:29:22;4.18;;;3.70;;
10517;SDS011;5307;42.548;22.968;2023-07-31T00:31:49;5.30;;;4.00;;
10517;SDS011;5307;42.548;22.968;2023-07-31T00:40:03;6.72;;;4.40;;
10517;SDS011;5307;42.548;22.968;2023-07-31T00:42:30;10.05;;;4.80;;
10517;SDS011;5307;42.548;22.968;2023-07-31T00:44:59;5.82;;;4.43;;
10517;SDS011;5307;42.548;22.968;2023-07-31T00:47:25;7.97;;;5.53;;
10517;SDS011;5307;42.548;22.968;2023-07-31T00:49:52;7.50;;;5.03;;
10517;SDS011;5307;42.548;22.968;2023-07-31T00:52:19;7.95;;;5.30;;
10517;SDS011;5307;42.548;22.968;2023-07-31T00:54:47;8.48;;;4.80;;
10517;SDS011;5307;42.548;22.968;2023-07-31T00:57:15;7.65;;;5.65;;
10517;SDS011;5307;42.548;22.968;2023-07-31T00:59:42;11.00;;;6.10;;
10517;SDS011;5307;42.548;22.968;2023-07-31T01:02:10;9.75;;;5.70;;
10517;SDS011;5307;42.548;22.968;2023-07-31T01:04:37;8.43;;;6.30;;
10517;SDS011;5307;42.548;22.968;2023-07-31T01:07:05;7.82;;;5.43;;
10517;SDS011;5307;42.548;22.968;2023-07-31T01:09:43;13.25;;;5.93;;
10517;SDS011;5307;42.548;22.968;2023-07-31T01:12:14;9.48;;;5.68;;
10517;SDS011;5307;42.548;22.968;2023-07-31T01:14:50;7.68;;;6.00;;
10517;SDS011;5307;42.548;22.968;2023-07-31T01:17:19;6.97;;;5.30;;
10517;SDS011;5307;42.548;22.968;2023-07-31T01:19:46;6.78;;;5.03;;
10517;SDS011;5307;42.548;22.968;2023-07-31T01:22:39;6.60;;;5.88;;
10517;SDS011;5307;42.548;22.968;2023-07-31T01:25:36;10.18;;;7.43;;
10517;SDS011;5307;42.548;22.968;2023-07-31T01:28:32;14.57;;;10.48;;
10517;SDS011;5307;42.548;22.968;2023-07-31T01:31:07;11.80;;;10.55;;
10517;SDS011;5307;42.548;22.968;2023-07-31T01:33:38;14.52;;;10.95;;
10517;SDS011;5307;42.548;22.968;2023-07-31T01:38:43;12.93;;;10.32;;
10517;SDS011;5307;42.548;22.968;2023-07-31T01:41:10;11.60;;;10.40;;
10517;SDS011;5307;42.548;22.968;2023-07-31T01:43:38;12.02;;;10.82;;
10517;SDS011;5307;42.548;22.968;2023-07-31T01:46:05;15.63;;;11.05;;
10517;SDS011;5307;42.548;22.968;2023-07-31T01:48:32;12.73;;;11.45;;
10517;SDS011;5307;42.548;22.968;2023-07-31T01:51:00;12.75;;;11.45;;
10517;SDS011;5307;42.548;22.968;2023-07-31T01:53:28;12.35;;;10.88;;
10517;SDS011;5307;42.548;22.968;2023-07-31T01:55:54;12.00;;;10.05;;
10517;SDS011;5307;42.548;22.968;2023-07-31T01:58:21;11.35;;;9.88;;
10517;SDS011;5307;42.548;22.968;2023-07-31T02:00:49;11.25;;;9.90;;
10517;SDS011;5307;42.548;22.968;2023-07-31T02:03:16;11.38;;;9.57;;
10517;SDS011;5307;42.548;22.968;2023-07-31T02:05:46;11.18;;;10.05;;
10517;SDS011;5307;42.548;22.968;2023-07-31T02:08:14;11.38;;;9.55;;
10517;SDS011;5307;42.548;22.968;2023-07-31T02:10:41;11.95;;;9.55;;
10517;SDS011;5307;42.548;22.968;2023-07-31T02:13:08;11.63;;;9.52;;
10517;SDS011;5307;42.548;22.968;2023-07-31T02:15:35;11.15;;;9.27;;
10517;SDS011;5307;42.548;22.968;2023-07-31T02:18:04;12.45;;;9.38;;
10517;SDS011;5307;42.548;22.968;2023-07-31T02:20:33;11.18;;;9.68;;
10517;SDS011;5307;42.548;22.968;2023-07-31T02:23:00;7.93;;;7.13;;
10517;SDS011;5307;42.548;22.968;2023-07-31T02:25:27;8.30;;;7.10;;
10517;SDS011;5307;42.548;22.968;2023-07-31T02:27:54;7.80;;;6.95;;
10517;SDS011;5307;42.548;22.968;2023-07-31T02:30:20;7.20;;;6.47;;
10517;SDS011;5307;42.548;22.968;2023-07-31T02:32:47;7.72;;;6.78;;
10517;SDS011;5307;42.548;22.968;2023-07-31T02:35:15;8.77;;;6.32;;
10517;SDS011;5307;42.548;22.968;2023-07-31T02:37:43;10.52;;;5.78;;
10517;SDS011;5307;42.548;22.968;2023-07-31T02:40:10;6.65;;;5.95;;
10517;SDS011;5307;42.548;22.968;2023-07-31T02:42:38;6.63;;;6.03;;
10517;SDS011;5307;42.548;22.968;2023-07-31T02:45:05;8.13;;;5.80;;
10517;SDS011;5307;42.548;22.968;2023-07-31T02:47:33;7.80;;;6.15;;
10517;SDS011;5307;42.548;22.968;2023-07-31T02:49:59;9.00;;;7.15;;
10517;SDS011;5307;42.548;22.968;2023-07-31T02:52:28;8.98;;;7.00;;
10517;SDS011;5307;42.548;22.968;2023-07-31T02:54:55;8.80;;;7.90;;
10517;SDS011;5307;42.548;22.968;2023-07-31T02:57:22;10.65;;;8.68;;
10517;SDS011;5307;42.548;22.968;2023-07-31T02:59:49;9.50;;;8.25;;
10517;SDS011;5307;42.548;22.968;2023-07-31T03:02:16;10.30;;;9.20;;
10517;SDS011;5307;42.548;22.968;2023-07-31T03:04:42;12.35;;;11.00;;
10517;SDS011;5307;42.548;22.968;2023-07-31T03:07:09;12.40;;;11.13;;
10517;SDS011;5307;42.548;22.968;2023-07-31T03:09:37;15.55;;;13.27;;
10517;SDS011;5307;42.548;22.968;2023-07-31T03:12:04;15.43;;;13.80;;
10517;SDS011;5307;42.548;22.968;2023-07-31T03:14:32;19.90;;;13.95;;
10517;SDS011;5307;42.548;22.968;2023-07-31T03:16:59;16.17;;;12.15;;
10517;SDS011;5307;42.548;22.968;2023-07-31T03:19:26;14.85;;;12.20;;
10517;SDS011;5307;42.548;22.968;2023-07-31T03:21:52;12.43;;;11.13;;
10517;SDS011;5307;42.548;22.968;2023-07-31T03:24:19;14.68;;;9.38;;
10517;SDS011;5307;42.548;22.968;2023-07-31T03:26:47;10.35;;;9.23;;
10517;SDS011;5307;42.548;22.968;2023-07-31T03:29:14;9.57;;;8.65;;
10517;SDS011;5307;42.548;22.968;2023-07-31T03:31:41;9.13;;;8.23;;
10517;SDS011;5307;42.548;22.968;2023-07-31T03:34:07;10.43;;;8.98;;
10517;SDS011;5307;42.548;22.968;2023-07-31T03:36:34;10.48;;;8.82;;
10517;SDS011;5307;42.548;22.968;2023-07-31T03:39:01;13.10;;;9.20;;
10517;SDS011;5307;42.548;22.968;2023-07-31T03:41:29;12.27;;;9.40;;
10517;SDS011;5307;42.548;22.968;2023-07-31T03:43:57;10.35;;;9.23;;
10517;SDS011;5307;42.548;22.968;2023-07-31T03:46:24;14.38;;;9.88;;
10517;SDS011;5307;42.548;22.968;2023-07-31T03:48:51;14.45;;;10.30;;
10517;SDS011;5307;42.548;22.968;2023-07-31T03:51:17;12.68;;;9.75;;
10517;SDS011;5307;42.548;22.968;2023-07-31T03:53:44;14.38;;;8.65;;
10517;SDS011;5307;42.548;22.968;2023-07-31T03:56:11;11.65;;;10.02;;
10517;SDS011;5307;42.548;22.968;2023-07-31T03:58:38;12.52;;;11.02;;
10517;SDS011;5307;42.548;22.968;2023-07-31T04:01:06;16.25;;;12.10;;
10517;SDS011;5307;42.548;22.968;2023-07-31T04:03:33;14.38;;;12.30;;
10517;SDS011;5307;42.548;22.968;2023-07-31T04:06:00;14.15;;;11.32;;
10517;SDS011;5307;42.548;22.968;2023-07-31T04:08:27;11.18;;;10.00;;
10517;SDS011;5307;42.548;22.968;2023-07-31T04:10:53;13.07;;;10.98;;
10517;SDS011;5307;42.548;22.968;2023-07-31T04:13:21;12.50;;;11.15;;
10517;SDS011;5307;42.548;22.968;2023-07-31T04:15:48;15.82;;;12.35;;
10517;SDS011;5307;42.548;22.968;2023-07-31T04:18:17;15.90;;;11.55;;
10517;SDS011;5307;42.548;22.968;2023-07-31T04:20:44;14.45;;;12.05;;
10517;SDS011;5307;42.548;22.968;2023-07-31T04:23:11;19.85;;;12.27;;
10517;SDS011;5307;42.548;22.968;2023-07-31T04:25:38;16.33;;;13.00;;
10517;SDS011;5307;42.548;22.968;2023-07-31T04:28:04;20.77;;;15.00;;
10517;SDS011;5307;42.548;22.968;2023-07-31T04:30:32;18.83;;;15.25;;
10517;SDS011;5307;42.548;22.968;2023-07-31T04:32:59;19.45;;;15.57;;
10517;SDS011;5307;42.548;22.968;2023-07-31T04:35:27;19.30;;;15.52;;
10517;SDS011;5307;42.548;22.968;2023-07-31T04:37:54;18.17;;;14.32;;
10517;SDS011;5307;42.548;22.968;2023-07-31T04:40:21;17.50;;;15.18;;
10517;SDS011;5307;42.548;22.968;2023-07-31T04:42:47;23.30;;;15.65;;
10517;SDS011;5307;42.548;22.968;2023-07-31T04:45:14;19.88;;;16.30;;
10517;SDS011;5307;42.548;22.968;2023-07-31T04:47:41;18.95;;;16.02;;
10517;SDS011;5307;42.548;22.968;2023-07-31T04:50:08;23.77;;;17.42;;
10517;SDS011;5307;42.548;22.968;2023-07-31T04:52:37;21.48;;;17.38;;
10517;SDS011;5307;42.548;22.968;2023-07-31T04:55:04;22.50;;;17.38;;
10517;SDS011;5307;42.548;22.968;2023-07-31T04:57:31;23.33;;;18.10;;
10517;SDS011;5307;42.548;22.968;2023-07-31T04:59:58;22.92;;;18.63;;
10517;SDS011;5307;42.548;22.968;2023-07-31T05:02:25;22.77;;;19.33;;
10517;SDS011;5307;42.548;22.968;2023-07-31T05:04:51;29.08;;;18.85;;
10517;SDS011;5307;42.548;22.968;2023-07-31T05:07:18;20.52;;;17.90;;
10517;SDS011;5307;42.548;22.968;2023-07-31T05:09:46;22.48;;;18.10;;
10517;SDS011;5307;42.548;22.968;2023-07-31T05:12:13;18.30;;;16.27;;
10517;SDS011;5307;42.548;22.968;2023-07-31T05:14:40;20.10;;;15.80;;
10517;SDS011;5307;42.548;22.968;2023-07-31T05:17:07;16.45;;;14.52;;
10517;SDS011;5307;42.548;22.968;2023-07-31T05:19:33;17.83;;;14.07;;
10517;SDS011;5307;42.548;22.968;2023-07-31T05:22:00;18.60;;;13.98;;
10517;SDS011;5307;42.548;22.968;2023-07-31T05:24:27;16.25;;;13.73;;
10517;SDS011;5307;42.548;22.968;2023-07-31T05:26:55;15.48;;;12.98;;
10517;SDS011;5307;42.548;22.968;2023-07-31T05:29:22;15.65;;;12.57;;
10517;SDS011;5307;42.548;22.968;2023-07-31T05:31:48;14.82;;;13.23;;
10517;SDS011;5307;42.548;22.968;2023-07-31T05:34:15;14.55;;;12.27;;
10517;SDS011;5307;42.548;22.968;2023-07-31T05:36:42;16.90;;;12.50;;
10517;SDS011;5307;42.548;22.968;2023-07-31T05:39:09;17.40;;;11.15;;
10517;SDS011;5307;42.548;22.968;2023-07-31T05:41:36;15.20;;;11.63;;
10517;SDS011;5307;42.548;22.968;2023-07-31T05:44:04;11.43;;;10.07;;
10517;SDS011;5307;42.548;22.968;2023-07-31T05:46:31;11.35;;;9.48;;
10517;SDS011;5307;42.548;22.968;2023-07-31T05:48:58;12.32;;;8.82;;
10517;SDS011;5307;42.548;22.968;2023-07-31T05:51:27;11.20;;;10.05;;
10517;SDS011;5307;42.548;22.968;2023-07-31T05:53:54;11.43;;;10.23;;
10517;SDS011;5307;42.548;22.968;2023-07-31T05:56:21;13.07;;;9.95;;
10517;SDS011;5307;42.548;22.968;2023-07-31T05:58:48;11.00;;;9.57;;
10517;SDS011;5307;42.548;22.968;2023-07-31T06:01:17;11.35;;;10.13;;
10517;SDS011;5307;42.548;22.968;2023-07-31T06:03:44;11.95;;;10.55;;
10517;SDS011;5307;42.548;22.968;2023-07-31T06:06:11;10.40;;;9.40;;
10517;SDS011;5307;42.548;22.968;2023-07-31T06:08:38;9.30;;;7.68;;
10517;SDS011;5307;42.548;22.968;2023-07-31T06:11:06;11.13;;;7.00;;
10517;SDS011;5307;42.548;22.968;2023-07-31T06:13:34;7.78;;;5.65;;
10517;SDS011;5307;42.548;22.968;2023-07-31T06:16:01;5.30;;;4.80;;
10517;SDS011;5307;42.548;22.968;2023-07-31T06:18:31;6.90;;;4.88;;
10517;SDS011;5307;42.548;22.968;2023-07-31T06:20:58;6.95;;;4.18;;
10517;SDS011;5307;42.548;22.968;2023-07-31T06:23:25;5.30;;;4.63;;
10517;SDS011;5307;42.548;22.968;2023-07-31T06:25:52;4.32;;;3.92;;
10517;SDS011;5307;42.548;22.968;2023-07-31T06:28:19;4.95;;;4.45;;
10517;SDS011;5307;42.548;22.968;2023-07-31T06:30:46;4.63;;;4.22;;
10517;SDS011;5307;42.548;22.968;2023-07-31T06:33:12;6.80;;;4.13;;
10517;SDS011;5307;42.548;22.968;2023-07-31T06:35:40;8.18;;;4.80;;
10517;SDS011;5307;42.548;22.968;2023-07-31T06:38:07;4.07;;;3.67;;
10517;SDS011;5307;42.548;22.968;2023-07-31T06:40:34;6.20;;;4.63;;
10517;SDS011;5307;42.548;22.968;2023-07-31T06:43:01;8.95;;;4.25;;
10517;SDS011;5307;42.548;22.968;2023-07-31T06:45:35;5.60;;;4.00;;
10517;SDS011;5307;42.548;22.968;2023-07-31T06:48:03;5.15;;;3.58;;
10517;SDS011;5307;42.548;22.968;2023-07-31T06:50:30;5.88;;;4.65;;
10517;SDS011;5307;42.548;22.968;2023-07-31T06:52:59;5.88;;;3.97;;
10517;SDS011;5307;42.548;22.968;2023-07-31T06:55:26;4.32;;;3.58;;
10517;SDS011;5307;42.548;22.968;2023-07-31T06:57:53;6.30;;;3.63;;
10517;SDS011;5307;42.548;22.968;2023-07-31T07:00:21;3.42;;;3.13;;
10517;SDS011;5307;42.548;22.968;2023-07-31T07:02:49;5.90;;;3.63;;
10517;SDS011;5307;42.548;22.968;2023-07-31T07:05:16;4.72;;;3.50;;
10517;SDS011;5307;42.548;22.968;2023-07-31T07:07:44;8.00;;;3.33;;
10517;SDS011;5307;42.548;22.968;2023-07-31T07:10:12;3.10;;;2.72;;
10517;SDS011;5307;42.548;22.968;2023-07-31T07:12:39;3.47;;;3.17;;
10517;SDS011;5307;42.548;22.968;2023-07-31T07:15:15;3.97;;;3.30;;
10517;SDS011;5307;42.548;22.968;2023-07-31T07:17:42;4.43;;;3.75;;
10517;SDS011;5307;42.548;22.968;2023-07-31T07:23:29;6.50;;;4.07;;
10517;SDS011;5307;42.548;22.968;2023-07-31T07:25:57;6.88;;;3.75;;
10517;SDS011;5307;42.548;22.968;2023-07-31T07:28:24;16.48;;;5.20;;
10517;SDS011;5307;42.548;22.968;2023-07-31T07:30:51;8.77;;;4.43;;
10517;SDS011;5307;42.548;22.968;2023-07-31T07:33:19;6.55;;;3.90;;
10517;SDS011;5307;42.548;22.968;2023-07-31T07:35:46;8.65;;;3.60;;
10517;SDS011;5307;42.548;22.968;2023-07-31T07:38:13;9.70;;;3.05;;
10517;SDS011;5307;42.548;22.968;2023-07-31T07:40:40;4.47;;;2.60;;
10517;SDS011;5307;42.548;22.968;2023-07-31T07:43:09;3.42;;;2.92;;
10517;SDS011;5307;42.548;22.968;2023-07-31T07:45:35;3.17;;;2.70;;
10517;SDS011;5307;42.548;22.968;2023-07-31T07:48:02;3.08;;;2.50;;
10517;SDS011;5307;42.548;22.968;2023-07-31T07:50:29;3.63;;;3.10;;
10517;SDS011;5307;42.548;22.968;2023-07-31T07:52:56;5.82;;;3.15;;
10517;SDS011;5307;42.548;22.968;2023-07-31T07:55:23;10.32;;;3.33;;
10517;SDS011;5307;42.548;22.968;2023-07-31T07:57:50;3.38;;;3.05;;
10517;SDS011;5307;42.548;22.968;2023-07-31T08:00:18;66.40;;;6.55;;
10517;SDS011;5307;42.548;22.968;2023-07-31T08:02:45;3.47;;;2.90;;
10517;SDS011;5307;42.548;22.968;2023-07-31T08:05:12;3.58;;;2.78;;
10517;SDS011;5307;42.548;22.968;2023-07-31T08:07:39;18.77;;;12.73;;
10517;SDS011;5307;42.548;22.968;2023-07-31T08:10:06;5.35;;;4.50;;
10517;SDS011;5307;42.548;22.968;2023-07-31T08:12:33;31.23;;;6.55;;
10517;SDS011;5307;42.548;22.968;2023-07-31T08:15:00;4.70;;;3.30;;
10517;SDS011;5307;42.548;22.968;2023-07-31T08:17:28;3.80;;;2.95;;
10517;SDS011;5307;42.548;22.968;2023-07-31T08:19:55;3.08;;;2.70;;
10517;SDS011;5307;42.548;22.968;2023-07-31T08:22:23;2.20;;;2.00;;
10517;SDS011;5307;42.548;22.968;2023-07-31T08:24:51;4.35;;;2.67;;
10517;SDS011;5307;42.548;22.968;2023-07-31T08:27:17;5.68;;;3.08;;
10517;SDS011;5307;42.548;22.968;2023-07-31T08:29:44;279.88;;;27.13;;
10517;SDS011;5307;42.548;22.968;2023-07-31T08:32:11;2.80;;;2.38;;
10517;SDS011;5307;42.548;22.968;2023-07-31T08:34:39;9.27;;;2.72;;
10517;SDS011;5307;42.548;22.968;2023-07-31T08:37:06;3.13;;;2.20;;
10517;SDS011;5307;42.548;22.968;2023-07-31T08:39:33;3.00;;;2.40;;
10517;SDS011;5307;42.548;22.968;2023-07-31T08:42:00;4.60;;;2.38;;
10517;SDS011;5307;42.548;22.968;2023-07-31T08:44:27;10.80;;;2.92;;
10517;SDS011;5307;42.548;22.968;2023-07-31T08:46:55;4.20;;;2.70;;
10517;SDS011;5307;42.548;22.968;2023-07-31T08:49:23;5.38;;;2.92;;
10517;SDS011;5307;42.548;22.968;2023-07-31T08:51:51;4.10;;;2.55;;
10517;SDS011;5307;42.548;22.968;2023-07-31T08:54:19;4.15;;;2.55;;
10517;SDS011;5307;42.548;22.968;2023-07-31T08:56:46;3.58;;;2.35;;
10517;SDS011;5307;42.548;22.968;2023-07-31T08:59:14;2.60;;;2.30;;
10517;SDS011;5307;42.548;22.968;2023-07-31T09:01:43;4.68;;;2.30;;
10517;SDS011;5307;42.548;22.968;2023-07-31T09:04:13;6.68;;;2.28;;
10517;SDS011;5307;42.548;22.968;2023-07-31T09:06:42;6.15;;;3.28;;
10517;SDS011;5307;42.548;22.968;2023-07-31T09:09:12;3.10;;;2.20;;
10517;SDS011;5307;42.548;22.968;2023-07-31T09:11:39;5.47;;;3.95;;
10517;SDS011;5307;42.548;22.968;2023-07-31T09:14:07;4.22;;;2.22;;
10517;SDS011;5307;42.548;22.968;2023-07-31T09:16:35;5.25;;;2.50;;
10517;SDS011;5307;42.548;22.968;2023-07-31T09:19:01;3.50;;;2.72;;
10517;SDS011;5307;42.548;22.968;2023-07-31T09:21:30;2.72;;;2.53;;
10517;SDS011;5307;42.548;22.968;2023-07-31T09:23:57;2.45;;;2.25;;
10517;SDS011;5307;42.548;22.968;2023-07-31T09:26:32;3.50;;;2.58;;
10517;SDS011;5307;42.548;22.968;2023-07-31T09:29:00;4.95;;;2.33;;
10517;SDS011;5307;42.548;22.968;2023-07-31T09:31:33;4.63;;;2.25;;
10517;SDS011;5307;42.548;22.968;2023-07-31T09:34:05;3.35;;;2.45;;
10517;SDS011;5307;42.548;22.968;2023-07-31T09:36:32;2.45;;;2.10;;
10517;SDS011;5307;42.548;22.968;2023-07-31T09:39:01;6.18;;;2.60;;
10517;SDS011;5307;42.548;22.968;2023-07-31T09:41:29;3.35;;;2.33;;
10517;SDS011;5307;42.548;22.968;2023-07-31T09:44:02;2.70;;;2.50;;
10517;SDS011;5307;42.548;22.968;2023-07-31T09:46:31;2.83;;;2.53;;
10517;SDS011;5307;42.548;22.968;2023-07-31T09:49:07;3.35;;;2.70;;
10517;SDS011;5307;42.548;22.968;2023-07-31T09:51:35;32.55;;;4.82;;
10517;SDS011;5307;42.548;22.968;2023-07-31T09:54:04;4.43;;;2.08;;
10517;SDS011;5307;42.548;22.968;2023-07-31T09:56:38;4.78;;;2.55;;
10517;SDS011;5307;42.548;22.968;2023-07-31T09:59:10;3.05;;;2.58;;
10517;SDS011;5307;42.548;22.968;2023-07-31T10:01:38;4.35;;;2.20;;
10517;SDS011;5307;42.548;22.968;2023-07-31T10:04:06;4.05;;;2.40;;
10517;SDS011;5307;42.548;22.968;2023-07-31T10:06:34;2.95;;;2.30;;
10517;SDS011;5307;42.548;22.968;2023-07-31T10:09:01;5.90;;;2.20;;
10517;SDS011;5307;42.548;22.968;2023-07-31T10:11:29;4.00;;;2.38;;
10517;SDS011;5307;42.548;22.968;2023-07-31T10:14:01;7.78;;;2.63;;
10517;SDS011;5307;42.548;22.968;2023-07-31T10:16:29;3.00;;;2.58;;
10517;SDS011;5307;42.548;22.968;2023-07-31T10:18:57;29.20;;;3.78;;
10517;SDS011;5307;42.548;22.968;2023-07-31T10:21:25;2.60;;;2.40;;
10517;SDS011;5307;42.548;22.968;2023-07-31T10:23:52;4.63;;;2.50;;
10517;SDS011;5307;42.548;22.968;2023-07-31T10:26:20;3.45;;;2.35;;
10517;SDS011;5307;42.548;22.968;2023-07-31T10:28:51;2.95;;;2.03;;
10517;SDS011;5307;42.548;22.968;2023-07-31T10:31:20;2.42;;;2.20;;
10517;SDS011;5307;42.548;22.968;2023-07-31T10:33:48;2.83;;;2.50;;
10517;SDS011;5307;42.548;22.968;2023-07-31T10:36:16;2.17;;;1.98;;
10517;SDS011;5307;42.548;22.968;2023-07-31T10:38:44;2.97;;;2.22;;
10517;SDS011;5307;42.548;22.968;2023-07-31T10:41:11;3.13;;;2.08;;
10517;SDS011;5307;42.548;22.968;2023-07-31T10:43:38;2.70;;;2.50;;
10517;SDS011;5307;42.548;22.968;2023-07-31T10:46:07;2.67;;;2.45;;
10517;SDS011;5307;42.548;22.968;2023-07-31T10:48:36;3.50;;;2.28;;
10517;SDS011;5307;42.548;22.968;2023-07-31T10:51:06;3.10;;;2.28;;
10517;SDS011;5307;42.548;22.968;2023-07-31T10:53:35;2.55;;;2.35;;
10517;SDS011;5307;42.548;22.968;2023-07-31T10:56:02;1.75;;;1.65;;
10517;SDS011;5307;42.548;22.968;2023-07-31T10:58:30;4.65;;;2.10;;
10517;SDS011;5307;42.548;22.968;2023-07-31T11:00:58;2.40;;;2.20;;
10517;SDS011;5307;42.548;22.968;2023-07-31T11:03:27;2.63;;;2.30;;
10517;SDS011;5307;42.548;22.968;2023-07-31T11:06:08;2.85;;;2.20;;
10517;SDS011;5307;42.548;22.968;2023-07-31T11:08:35;4.38;;;2.50;;
10517;SDS011;5307;42.548;22.968;2023-07-31T11:11:08;2.80;;;2.60;;
10517;SDS011;5307;42.548;22.968;2023-07-31T11:13:39;2.95;;;2.65;;
10517;SDS011;5307;42.548;22.968;2023-07-31T11:16:08;3.17;;;2.28;;
10517;SDS011;5307;42.548;22.968;2023-07-31T11:18:35;2.53;;;2.33;;
10517;SDS011;5307;42.548;22.968;2023-07-31T11:21:02;2.58;;;2.38;;
10517;SDS011;5307;42.548;22.968;2023-07-31T11:23:30;2.85;;;2.60;;
10517;SDS011;5307;42.548;22.968;2023-07-31T11:25:59;5.93;;;4.13;;
10517;SDS011;5307;42.548;22.968;2023-07-31T11:28:30;5.38;;;4.20;;
10517;SDS011;5307;42.548;22.968;2023-07-31T11:30:58;6.05;;;4.40;;
10517;SDS011;5307;42.548;22.968;2023-07-31T11:33:24;5.28;;;4.80;;
10517;SDS011;5307;42.548;22.968;2023-07-31T11:35:52;7.78;;;5.40;;
10517;SDS011;5307;42.548;22.968;2023-07-31T11:38:22;9.60;;;8.27;;
10517;SDS011;5307;42.548;22.968;2023-07-31T11:40:51;7.20;;;5.72;;
10517;SDS011;5307;42.548;22.968;2023-07-31T11:43:18;6.47;;;5.88;;
10517;SDS011;5307;42.548;22.968;2023-07-31T11:45:46;6.03;;;5.53;;
10517;SDS011;5307;42.548;22.968;2023-07-31T11:48:21;5.78;;;5.28;;
10517;SDS011;5307;42.548;22.968;2023-07-31T11:50:49;6.32;;;5.55;;
10517;SDS011;5307;42.548;22.968;2023-07-31T11:53:19;6.68;;;6.07;;
10517;SDS011;5307;42.548;22.968;2023-07-31T11:55:51;6.88;;;6.18;;
10517;SDS011;5307;42.548;22.968;2023-07-31T11:58:18;6.65;;;5.95;;
10517;SDS011;5307;42.548;22.968;2023-07-31T12:00:46;8.27;;;6.68;;
10517;SDS011;5307;42.548;22.968;2023-07-31T12:03:13;6.95;;;6.20;;
10517;SDS011;5307;42.548;22.968;2023-07-31T12:05:40;10.18;;;6.90;;
10517;SDS011;5307;42.548;22.968;2023-07-31T12:08:10;7.38;;;6.57;;
10517;SDS011;5307;42.548;22.968;2023-07-31T12:10:38;9.05;;;6.60;;
10517;SDS011;5307;42.548;22.968;2023-07-31T12:13:08;7.68;;;6.97;;
10517;SDS011;5307;42.548;22.968;2023-07-31T12:15:46;6.30;;;5.70;;
10517;SDS011;5307;42.548;22.968;2023-07-31T12:18:13;7.38;;;6.68;;
10517;SDS011;5307;42.548;22.968;2023-07-31T12:20:41;7.32;;;6.72;;
10517;SDS011;5307;42.548;22.968;2023-07-31T12:23:13;7.15;;;6.55;;
10517;SDS011;5307;42.548;22.968;2023-07-31T12:25:41;7.32;;;6.63;;
10517;SDS011;5307;42.548;22.968;2023-07-31T12:28:09;10.30;;;7.40;;
10517;SDS011;5307;42.548;22.968;2023-07-31T12:30:40;11.07;;;7.68;;
10517;SDS011;5307;42.548;22.968;2023-07-31T12:33:13;8.73;;;6.82;;
10517;SDS011;5307;42.548;22.968;2023-07-31T12:35:41;8.55;;;7.68;;
10517;SDS011;5307;42.548;22.968;2023-07-31T12:38:13;10.00;;;8.48;;
10517;SDS011;5307;42.548;22.968;2023-07-31T12:40:41;12.75;;;8.45;;
10517;SDS011;5307;42.548;22.968;2023-07-31T12:43:09;9.75;;;8.52;;
10517;SDS011;5307;42.548;22.968;2023-07-31T12:45:36;8.63;;;7.82;;
10517;SDS011;5307;42.548;22.968;2023-07-31T12:48:03;8.77;;;7.88;;
10517;SDS011;5307;42.548;22.968;2023-07-31T12:50:30;7.35;;;6.65;;
10517;SDS011;5307;42.548;22.968;2023-07-31T12:52:57;9.32;;;7.93;;
10517;SDS011;5307;42.548;22.968;2023-07-31T12:55:24;7.57;;;6.88;;
10517;SDS011;5307;42.548;22.968;2023-07-31T12:57:51;7.72;;;7.03;;
10517;SDS011;5307;42.548;22.968;2023-07-31T13:00:19;7.38;;;6.68;;
10517;SDS011;5307;42.548;22.968;2023-07-31T13:02:46;8.43;;;7.50;;
10517;SDS011;5307;42.548;22.968;2023-07-31T13:05:12;9.43;;;8.50;;
10517;SDS011;5307;42.548;22.968;2023-07-31T13:07:39;9.02;;;7.60;;
10517;SDS011;5307;42.548;22.968;2023-07-31T13:10:07;8.77;;;7.97;;
10517;SDS011;5307;42.548;22.968;2023-07-31T13:12:34;8.75;;;7.95;;
10517;SDS011;5307;42.548;22.968;2023-07-31T13:15:01;20.88;;;8.38;;
10517;SDS011;5307;42.548;22.968;2023-07-31T13:17:30;14.48;;;8.07;;
10517;SDS011;5307;42.548;22.968;2023-07-31T13:19:56;9.27;;;7.60;;
10517;SDS011;5307;42.548;22.968;2023-07-31T13:22:24;8.52;;;7.60;;
10517;SDS011;5307;42.548;22.968;2023-07-31T13:24:51;9.63;;;7.28;;
10517;SDS011;5307;42.548;22.968;2023-07-31T13:27:18;7.90;;;7.15;;
10517;SDS011;5307;42.548;22.968;2023-07-31T13:29:46;8.85;;;7.40;;
10517;SDS011;5307;42.548;22.968;2023-07-31T13:32:14;10.05;;;7.82;;
10517;SDS011;5307;42.548;22.968;2023-07-31T13:34:42;10.35;;;7.78;;
10517;SDS011;5307;42.548;22.968;2023-07-31T13:37:09;8.57;;;7.78;;
10517;SDS011;5307;42.548;22.968;2023-07-31T13:39:36;7.93;;;7.22;;
10517;SDS011;5307;42.548;22.968;2023-07-31T13:42:03;7.88;;;7.18;;
10517;SDS011;5307;42.548;22.968;2023-07-31T13:44:31;7.85;;;6.53;;
10517;SDS011;5307;42.548;22.968;2023-07-31T13:46:58;8.10;;;7.40;;
10517;SDS011;5307;42.548;22.968;2023-07-31T13:49:25;7.90;;;7.20;;
10517;SDS011;5307;42.548;22.968;2023-07-31T13:51:53;9.73;;;7.13;;
10517;SDS011;5307;42.548;22.968;2023-07-31T13:54:23;9.73;;;7.13;;
10517;SDS011;5307;42.548;22.968;2023-07-31T13:56:51;7.80;;;7.10;;
10517;SDS011;5307;42.548;22.968;2023-07-31T13:59:18;7.10;;;6.40;;
10517;SDS011;5307;42.548;22.968;2023-07-31T14:01:45;7.30;;;6.35;;
10517;SDS011;5307;42.548;22.968;2023-07-31T14:04:12;7.45;;;6.85;;
10517;SDS011;5307;42.548;22.968;2023-07-31T14:06:39;7.32;;;6.47;;
10517;SDS011;5307;42.548;22.968;2023-07-31T14:09:08;6.18;;;5.65;;
10517;SDS011;5307;42.548;22.968;2023-07-31T14:11:35;5.20;;;4.80;;
10517;SDS011;5307;42.548;22.968;2023-07-31T14:14:01;7.30;;;4.75;;
10517;SDS011;5307;42.548;22.968;2023-07-31T14:16:29;7.20;;;4.60;;
10517;SDS011;5307;42.548;22.968;2023-07-31T14:18:58;4.90;;;4.50;;
10517;SDS011;5307;42.548;22.968;2023-07-31T14:21:25;4.95;;;4.47;;
10517;SDS011;5307;42.548;22.968;2023-07-31T14:23:52;5.10;;;4.53;;
10517;SDS011;5307;42.548;22.968;2023-07-31T14:26:20;5.47;;;4.00;;
10517;SDS011;5307;42.548;22.968;2023-07-31T14:28:47;6.18;;;4.32;;
10517;SDS011;5307;42.548;22.968;2023-07-31T14:31:14;4.40;;;4.00;;
10517;SDS011;5307;42.548;22.968;2023-07-31T14:33:41;4.32;;;3.92;;
10517;SDS011;5307;42.548;22.968;2023-07-31T14:36:07;4.57;;;4.07;;
10517;SDS011;5307;42.548;22.968;2023-07-31T14:38:34;4.45;;;4.05;;
10517;SDS011;5307;42.548;22.968;2023-07-31T14:41:01;5.30;;;4.07;;
10517;SDS011;5307;42.548;22.968;2023-07-31T14:43:29;6.80;;;4.43;;
10517;SDS011;5307;42.548;22.968;2023-07-31T14:45:56;4.70;;;4.30;;
10517;SDS011;5307;42.548;22.968;2023-07-31T14:48:24;4.53;;;4.00;;
10517;SDS011;5307;42.548;22.968;2023-07-31T14:50:51;6.65;;;4.10;;
10517;SDS011;5307;42.548;22.968;2023-07-31T14:53:18;4.32;;;3.92;;
10517;SDS011;5307;42.548;22.968;2023-07-31T14:55:45;4.80;;;3.90;;
10517;SDS011;5307;42.548;22.968;2023-07-31T14:58:11;8.88;;;4.03;;